Time;durP1;ratioP1;P1;durP2;ratioP2;P2;SDS_P1;SDS_P2;PMS_P1;PMS_P2;Temp;Humidity;BMP_temperature;BMP_pressure;BME280_temperature;BME280_humidity;BME280_pressure;Samples;Min_cycle;Max_cycle;Signal;HPM_P1;HPM_P2
2021/11/15 00:01:13;;;;;;;;;;;;;;;;;;5028723;28;20263;-76
2021/11/15 00:03:38;;;;;;;;;;;;;;;;;;5015377;28;20032;-77
2021/11/15 00:06:06;;;;;;;;;;;;;;;;;;5013880;28;20008;-77
2021/11/15 00:08:31;;;;;;;;;;;;;;;;;;5015409;28;19916;-77
2021/11/15 00:10:57;;;;;;;;;;;;;;;;;;5013394;28;19913;-77
2021/11/15 00:13:23;;;;;;;;;;;;;;;;;;5015024;28;19916;-76
2021/11/15 00:15:49;;;;;;;;;;;;;;;;;;5013932;28;20354;-79
2021/11/15 00:18:15;;;;;;;;;;;;;;;;;;5014024;28;19953;-78
2021/11/15 00:20:41;;;;;;;;;;;;;;;;;;5014994;28;20370;-77
2021/11/15 00:23:07;;;;;;;;;;;;;;;;;;5016449;28;19913;-77
2021/11/15 00:25:33;;;;;;;;;;;;;;;;;;5033103;28;20014;-76
2021/11/15 00:27:58;;;;;;;;;;;;;;;;;;5033073;28;19909;-77
2021/11/15 00:30:24;;;;;;;;;;;;;;;;;;5033322;28;19935;-76
2021/11/15 00:32:50;;;;;;;;;;;;;;;;;;5015859;28;20328;-78
2021/11/15 00:35:16;;;;;;;;;;;;;;;;;;5014605;28;20095;-78
2021/11/15 00:37:42;;;;;;;;;;;;;;;;;;5014839;28;19909;-77
2021/11/15 00:40:08;;;;;;;;;;;;;;;;;;5013227;28;19917;-77
2021/11/15 00:42:34;;;;;;;;;;;;;;;;;;5014434;28;20374;-76
2021/11/15 00:45:00;;;;;;;;;;;;;;;;;;5013443;28;19905;-77
2021/11/15 00:47:25;;;;;;;;;;;;;;;;;;5013396;28;19956;-77
2021/11/15 00:49:51;;;;;;;;;;;;;;;;;;5013335;28;20397;-77
2021/11/15 00:52:17;;;;;;;;;;;;;;;;;;5013178;28;19916;-77
2021/11/15 00:54:43;;;;;;;;;;;;;;;;;;5014180;28;19956;-77
2021/11/15 00:57:09;;;;;;;;;;;;;;;;;;5016109;28;19918;-78
2021/11/15 00:59:35;;;;;;;;;;;;;;;;;;5014378;28;20366;-78
2021/11/15 01:02:01;;;;;;;;;;;;;;;;;;5012818;28;20004;-79
2021/11/15 01:04:27;;;;;;;;;;;;;;;;;;5012989;28;19921;-78
2021/11/15 01:06:53;;;;;;;;;;;;;;;;;;5012854;28;19932;-77
2021/11/15 01:09:18;;;;;;;;;;;;;;;;;;5012655;28;19910;-78
2021/11/15 01:11:44;;;;;;;;;;;;;;;;;;5013921;28;19910;-79
2021/11/15 01:14:10;;;;;;;;;;;;;;;;;;5026160;28;20370;-76
2021/11/15 01:16:36;;;;;;;;;;;;;;;;;;5032458;28;19962;-77
2021/11/15 01:19:02;;;;;;;;;;;;;;;;;;5032382;28;19916;-77
2021/11/15 01:21:28;;;;;;;;;;;;;;;;;;5032401;28;20281;-75
2021/11/15 01:23:54;;;;;;;;;;;;;;;;;;5032033;28;19956;-77
2021/11/15 01:26:20;;;;;;;;;;;;;;;;;;5031469;28;20322;-77
2021/11/15 01:28:47;;;;;;;;;;;;;;;;;;5013570;28;19928;-78
2021/11/15 01:31:13;;;;;;;;;;;;;;;;;;5013830;28;19921;-76
2021/11/15 01:33:39;;;;;;;;;;;;;;;;;;5012561;28;19909;-76
2021/11/15 01:36:05;;;;;;;;;;;;;;;;;;5012346;28;19914;-76
2021/11/15 01:38:33;;;;;;;;;;;;;;;;;;5012677;28;20377;-78
2021/11/15 01:40:59;;;;;;;;;;;;;;;;;;5012376;28;19910;-77
2021/11/15 01:43:25;;;;;;;;;;;;;;;;;;5012359;28;20011;-79
2021/11/15 01:45:50;;;;;;;;;;;;;;;;;;5013478;28;20000;-77
2021/11/15 01:48:17;;;;;;;;;;;;;;;;;;5030410;28;19913;-76
2021/11/15 01:50:43;;;;;;;;;;;;;;;;;;5011923;28;20388;-76
2021/11/15 01:53:09;;;;;;;;;;;;;;;;;;5012004;28;19914;-78
2021/11/15 01:55:35;;;;;;;;;;;;;;;;;;5011197;28;20485;-76
2021/11/15 01:58:03;;;;;;;;;;;;;;;;;;5012078;28;19916;-75
2021/11/15 02:00:29;;;;;;;;;;;;;;;;;;5011886;28;19913;-76
2021/11/15 02:02:55;;;;;;;;;;;;;;;;;;5011846;28;20311;-76
2021/11/15 02:05:21;;;;;;;;;;;;;;;;;;5011705;28;19917;-76
2021/11/15 02:07:47;;;;;;;;;;;;;;;;;;5020226;28;19913;-76
2021/11/15 02:10:12;;;;;;;;;;;;;;;;;;5011551;28;19913;-77
2021/11/15 02:12:38;;;;;;;;;;;;;;;;;;5013007;28;19953;-77
2021/11/15 02:15:07;;;;;;;;;;;;;;;;;;5013124;28;19913;-77
2021/11/15 02:17:33;;;;;;;;;;;;;;;;;;5011691;28;19910;-78
2021/11/15 02:19:59;;;;;;;;;;;;;;;;;;5011631;28;20412;-78
2021/11/15 02:22:25;;;;;;;;;;;;;;;;;;5015863;28;19909;-77
2021/11/15 02:24:51;;;;;;;;;;;;;;;;;;5031190;28;19916;-77
2021/11/15 02:27:17;;;;;;;;;;;;;;;;;;5031802;28;20004;-77
2021/11/15 02:29:42;;;;;;;;;;;;;;;;;;5032247;28;19928;-78
2021/11/15 02:32:08;;;;;;;;;;;;;;;;;;5031228;28;19909;-77
2021/11/15 02:34:34;;;;;;;;;;;;;;;;;;5031611;28;19956;-74
2021/11/15 02:37:00;;;;;;;;;;;;;;;;;;5027345;28;20362;-79
2021/11/15 02:39:26;;;;;;;;;;;;;;;;;;5011675;28;19921;-76
2021/11/15 02:41:52;;;;;;;;;;;;;;;;;;5011210;28;20007;-78
2021/11/15 02:44:18;;;;;;;;;;;;;;;;;;5011029;28;20250;-77
2021/11/15 02:46:44;;;;;;;;;;;;;;;;;;5011643;28;19909;-75
2021/11/15 02:49:09;;;;;;;;;;;;;;;;;;5012366;28;19999;-76
2021/11/15 02:51:35;;;;;;;;;;;;;;;;;;5012694;28;20004;-78
2021/11/15 02:54:01;;;;;;;;;;;;;;;;;;5011171;28;19910;-78
2021/11/15 02:56:27;;;;;;;;;;;;;;;;;;5017001;28;20423;-77
2021/11/15 02:58:53;;;;;;;;;;;;;;;;;;5030652;28;19940;-78
2021/11/15 03:01:19;;;;;;;;;;;;;;;;;;5032117;28;19913;-77
2021/11/15 03:03:45;;;;;;;;;;;;;;;;;;5031028;28;19913;-78
2021/11/15 03:06:11;;;;;;;;;;;;;;;;;;5031275;28;19909;-76
2021/11/15 03:08:37;;;;;;;;;;;;;;;;;;5030679;28;19909;-76
2021/11/15 03:11:04;;;;;;;;;;;;;;;;;;5031605;28;19968;-77
2021/11/15 03:13:30;;;;;;;;;;;;;;;;;;5026129;28;19971;-77
2021/11/15 03:15:56;;;;;;;;;;;;;;;;;;5011853;28;20012;-78
2021/11/15 03:18:22;;;;;;;;;;;;;;;;;;5012197;28;20005;-77
2021/11/15 03:20:48;;;;;;;;;;;;;;;;;;5011926;28;19913;-75
2021/11/15 03:23:14;;;;;;;;;;;;;;;;;;5010514;28;20286;-76
2021/11/15 03:25:40;;;;;;;;;;;;;;;;;;5010132;28;19910;-76
2021/11/15 03:28:06;;;;;;;;;;;;;;;;;;5011985;28;19925;-77
2021/11/15 03:30:32;;;;;;;;;;;;;;;;;;5011657;28;20382;-78
2021/11/15 03:32:58;;;;;;;;;;;;;;;;;;5010949;28;19910;-78
2021/11/15 03:35:24;;;;;;;;;;;;;;;;;;5010715;28;20337;-76
2021/11/15 03:37:50;;;;;;;;;;;;;;;;;;5011857;28;19945;-74
2021/11/15 03:40:19;;;;;;;;;;;;;;;;;;5011678;28;20568;-77
2021/11/15 03:42:45;;;;;;;;;;;;;;;;;;5011670;28;19916;-79
2021/11/15 03:45:11;;;;;;;;;;;;;;;;;;5012482;28;20000;-77
2021/11/15 03:47:37;;;;;;;;;;;;;;;;;;5014021;28;20346;-78
2021/11/15 03:50:03;;;;;;;;;;;;;;;;;;5015306;28;19913;-76
2021/11/15 03:52:29;;;;;;;;;;;;;;;;;;5015657;28;20321;-78
2021/11/15 03:54:55;;;;;;;;;;;;;;;;;;5014165;28;20313;-76
2021/11/15 03:57:21;;;;;;;;;;;;;;;;;;5019458;28;20369;-77
2021/11/15 03:59:47;;;;;;;;;;;;;;;;;;5033786;28;19924;-76
2021/11/15 04:02:13;;;;;;;;;;;;;;;;;;5033904;28;19956;-79
2021/11/15 04:05:03;;;;;;;;;;;;;;;;;;5027119;28;19909;-77
2021/11/15 04:07:31;;;;;;;;;;;;;;;;;;5014842;28;19910;-76
2021/11/15 04:09:58;;;;;;;;;;;;;;;;;;5014139;28;19964;-77
2021/11/15 04:12:24;;;;;;;;;;;;;;;;;;5014141;28;20288;-77
2021/11/15 04:14:50;;;;;;;;;;;;;;;;;;5013884;28;19916;-77
2021/11/15 04:17:16;;;;;;;;;;;;;;;;;;5015143;28;19913;-79
2021/11/15 04:19:42;;;;;;;;;;;;;;;;;;5015000;28;19909;-77
2021/11/15 04:22:08;;;;;;;;;;;;;;;;;;5015268;28;20350;-77
2021/11/15 04:24:34;;;;;;;;;;;;;;;;;;5014955;28;19924;-79
2021/11/15 04:27:00;;;;;;;;;;;;;;;;;;5012600;28;20329;-77
2021/11/15 04:29:31;;;;;;;;;;;;;;;;;;5013518;28;20013;-78
2021/11/15 04:31:57;;;;;;;;;;;;;;;;;;5013603;28;19940;-76
2021/11/15 04:34:22;;;;;;;;;;;;;;;;;;5013368;28;20525;-77
2021/11/15 04:36:48;;;;;;;;;;;;;;;;;;5013589;28;19919;-77
2021/11/15 04:39:14;;;;;;;;;;;;;;;;;;5015094;28;19910;-78
2021/11/15 04:41:40;;;;;;;;;;;;;;;;;;5014783;28;19910;-77
2021/11/15 04:44:06;;;;;;;;;;;;;;;;;;5013447;28;20354;-77
2021/11/15 04:46:32;;;;;;;;;;;;;;;;;;5014595;28;19909;-76
2021/11/15 04:48:58;;;;;;;;;;;;;;;;;;5012755;28;19909;-77
2021/11/15 04:51:24;;;;;;;;;;;;;;;;;;5012771;28;20091;-76
2021/11/15 04:53:49;;;;;;;;;;;;;;;;;;5013312;28;20004;-76
2021/11/15 04:56:15;;;;;;;;;;;;;;;;;;5013084;28;20370;-75
2021/11/15 04:58:41;;;;;;;;;;;;;;;;;;5013219;28;19916;-77
2021/11/15 05:01:07;;;;;;;;;;;;;;;;;;5013117;28;19910;-76
2021/11/15 05:03:35;;;;;;;;;;;;;;;;;;5014329;28;19906;-78
2021/11/15 05:06:01;;;;;;;;;;;;;;;;;;5013013;28;20008;-76
2021/11/15 05:08:27;;;;;;;;;;;;;;;;;;5012778;28;19917;-76
2021/11/15 05:10:53;;;;;;;;;;;;;;;;;;5013931;28;19964;-77
2021/11/15 05:13:19;;;;;;;;;;;;;;;;;;5012813;28;20361;-77
2021/11/15 05:15:45;;;;;;;;;;;;;;;;;;5013997;28;19972;-77
2021/11/15 05:18:11;;;;;;;;;;;;;;;;;;5013870;28;20349;-77
2021/11/15 05:20:37;;;;;;;;;;;;;;;;;;5012485;28;19949;-79
2021/11/15 05:23:03;;;;;;;;;;;;;;;;;;5016492;28;19948;-78
2021/11/15 05:25:29;;;;;;;;;;;;;;;;;;5033017;28;20329;-79
2021/11/15 05:27:55;;;;;;;;;;;;;;;;;;5033057;28;19909;-78
2021/11/15 05:30:21;;;;;;;;;;;;;;;;;;5033315;28;19990;-77
2021/11/15 05:32:47;;;;;;;;;;;;;;;;;;5033275;28;20366;-76
2021/11/15 05:35:12;;;;;;;;;;;;;;;;;;5031882;28;19909;-77
2021/11/15 05:37:39;;;;;;;;;;;;;;;;;;5031943;28;20035;-78
2021/11/15 05:40:05;;;;;;;;;;;;;;;;;;5031901;28;20444;-77
2021/11/15 05:42:30;;;;;;;;;;;;;;;;;;5031776;28;19955;-77
2021/11/15 05:44:56;;;;;;;;;;;;;;;;;;5032446;28;19913;-75
2021/11/15 05:47:22;;;;;;;;;;;;;;;;;;5019407;28;19917;-77
2021/11/15 05:49:48;;;;;;;;;;;;;;;;;;5011954;28;19960;-77
2021/11/15 05:52:16;;;;;;;;;;;;;;;;;;5013526;28;20354;-79
2021/11/15 05:54:42;;;;;;;;;;;;;;;;;;5013164;28;19909;-75
2021/11/15 05:57:08;;;;;;;;;;;;;;;;;;5012565;28;19909;-78
2021/11/15 05:59:34;;;;;;;;;;;;;;;;;;5012885;28;19951;-78
2021/11/15 06:02:00;;;;;;;;;;;;;;;;;;5013333;28;19915;-77
2021/11/15 06:04:26;;;;;;;;;;;;;;;;;;5012806;28;20486;-79
2021/11/15 06:06:52;;;;;;;;;;;;;;;;;;5011793;28;19913;-76
2021/11/15 06:09:18;;;;;;;;;;;;;;;;;;5012761;28;19909;-76
2021/11/15 06:11:44;;;;;;;;;;;;;;;;;;5012686;28;19936;-77
2021/11/15 06:14:10;;;;;;;;;;;;;;;;;;5011461;28;19917;-75
2021/11/15 06:16:36;;;;;;;;;;;;;;;;;;5011384;28;20051;-77
2021/11/15 06:19:02;;;;;;;;;;;;;;;;;;5011402;28;19939;-78
2021/11/15 06:21:28;;;;;;;;;;;;;;;;;;5016801;28;19913;-77
2021/11/15 06:23:53;;;;;;;;;;;;;;;;;;5031053;28;19909;-77
2021/11/15 06:26:19;;;;;;;;;;;;;;;;;;5031641;28;19909;-78
2021/11/15 06:28:48;;;;;;;;;;;;;;;;;;5030864;28;20293;-78
2021/11/15 06:31:14;;;;;;;;;;;;;;;;;;5032506;28;20373;-78
2021/11/15 06:33:40;;;;;;;;;;;;;;;;;;5032469;28;19909;-77
2021/11/15 06:36:06;;;;;;;;;;;;;;;;;;5030965;28;19909;-75
2021/11/15 06:38:32;;;;;;;;;;;;;;;;;;5016809;28;20353;-77
2021/11/15 06:40:57;;;;;;;;;;;;;;;;;;5012206;28;19921;-76
2021/11/15 06:43:23;;;;;;;;;;;;;;;;;;5011045;28;19914;-78
2021/11/15 06:45:50;;;;;;;;;;;;;;;;;;5011243;28;19913;-78
2021/11/15 06:48:16;;;;;;;;;;;;;;;;;;5011337;28;19941;-76
2021/11/15 06:50:42;;;;;;;;;;;;;;;;;;5012239;28;20369;-78
2021/11/15 06:53:07;;;;;;;;;;;;;;;;;;5010797;28;19910;-78
2021/11/15 06:55:33;;;;;;;;;;;;;;;;;;5023438;28;19917;-76
2021/11/15 06:58:01;;;;;;;;;;;;;;;;;;5031837;28;19913;-76
2021/11/15 07:00:27;;;;;;;;;;;;;;;;;;5030847;28;19916;-76
2021/11/15 07:02:53;;;;;;;;;;;;;;;;;;5030830;28;20289;-76
2021/11/15 07:05:21;;;;;;;;;;;;;;;;;;5032191;28;19996;-76
2021/11/15 07:07:47;;;;;;;;;;;;;;;;;;5030829;28;19913;-76
2021/11/15 07:10:13;;;;;;;;;;;;;;;;;;5031938;28;19913;-77
2021/11/15 07:12:39;;;;;;;;;;;;;;;;;;5020016;28;19925;-77
2021/11/15 07:15:05;;;;;;;;;;;;;;;;;;5024788;28;19909;-78
2021/11/15 07:17:31;;;;;;;;;;;;;;;;;;5026762;28;19914;-78
2021/11/15 07:19:57;;;;;;;;;;;;;;;;;;5030024;28;19920;-78
2021/11/15 07:22:22;;;;;;;;;;;;;;;;;;5024460;28;19921;-76
2021/11/15 07:24:49;;;;;;;;;;;;;;;;;;5016472;28;20262;-77
2021/11/15 07:27:14;;;;;;;;;;;;;;;;;;5013953;28;19913;-78
2021/11/15 07:29:40;;;;;;;;;;;;;;;;;;5024119;28;19927;-77
2021/11/15 07:32:11;;;;;;;;;;;;;;;;;;5024765;28;19970;-77
2021/11/15 07:34:36;;;;;;;;;;;;;;;;;;5035257;28;20024;-78
2021/11/15 07:37:02;;;;;;;;;;;;;;;;;;5026037;28;19933;-77
2021/11/15 07:39:28;;;;;;;;;;;;;;;;;;5014401;28;19909;-76
2021/11/15 07:41:54;;;;;;;;;;;;;;;;;;5015290;28;19921;-77
2021/11/15 07:44:20;;;;;;;;;;;;;;;;;;5026477;28;19920;-77
2021/11/15 07:46:48;;;;;;;;;;;;;;;;;;5027332;28;20335;-77
2021/11/15 07:49:20;;;;;;;;;;;;;;;;;;5034266;28;19909;-76
2021/11/15 07:51:46;;;;;;;;;;;;;;;;;;5032008;28;20029;-76
2021/11/15 07:54:12;;;;;;;;;;;;;;;;;;5032909;28;19965;-76
2021/11/15 07:56:38;;;;;;;;;;;;;;;;;;5032057;28;19909;-77
2021/11/15 07:59:05;;;;;;;;;;;;;;;;;;5032837;28;20060;-78
2021/11/15 08:01:31;;;;;;;;;;;;;;;;;;5027470;28;20444;-75
2021/11/15 08:03:57;;;;;;;;;;;;;;;;;;5012483;28;20020;-76
2021/11/15 08:06:28;;;;;;;;;;;;;;;;;;5022169;28;19913;-78
2021/11/15 08:08:54;;;;;;;;;;;;;;;;;;5018397;28;20288;-78
2021/11/15 08:11:20;;;;;;;;;;;;;;;;;;5027607;28;19918;-77
2021/11/15 08:13:46;;;;;;;;;;;;;;;;;;5018858;28;19917;-77
2021/11/15 08:16:12;;;;;;;;;;;;;;;;;;5014868;28;19909;-79
2021/11/15 08:18:38;;;;;;;;;;;;;;;;;;5013934;28;19909;-75
2021/11/15 08:21:08;;;;;;;;;;;;;;;;;;5022301;28;19921;-76
2021/11/15 08:23:34;;;;;;;;;;;;;;;;;;5033822;28;19909;-78
2021/11/15 08:26:03;;;;;;;;;;;;;;;;;;5033676;28;19963;-75
2021/11/15 08:28:29;;;;;;;;;;;;;;;;;;5031175;28;20289;-76
2021/11/15 08:30:55;;;;;;;;;;;;;;;;;;5024719;28;19917;-76
2021/11/15 08:33:21;;;;;;;;;;;;;;;;;;5022915;28;19963;-77
2021/11/15 08:35:48;;;;;;;;;;;;;;;;;;5049761;28;19960;-76
2021/11/15 08:38:14;;;;;;;;;;;;;;;;;;5038419;28;19913;-76
2021/11/15 08:40:40;;;;;;;;;;;;;;;;;;5037450;28;20247;-76
2021/11/15 08:43:06;;;;;;;;;;;;;;;;;;5023689;28;19974;-78
2021/11/15 08:45:32;;;;;;;;;;;;;;;;;;5037528;28;20266;-78
2021/11/15 08:47:58;;;;;;;;;;;;;;;;;;5035578;28;19961;-76
2021/11/15 08:50:24;;;;;;;;;;;;;;;;;;5044152;28;19923;-77
2021/11/15 08:52:49;;;;;;;;;;;;;;;;;;5038271;28;19967;-78
2021/11/15 08:55:15;;;;;;;;;;;;;;;;;;5042260;28;19919;-79
2021/11/15 08:57:41;;;;;;;;;;;;;;;;;;5046666;28;19913;-77
2021/11/15 09:00:07;;;;;;;;;;;;;;;;;;5044647;28;19909;-76
2021/11/15 09:02:33;;;;;;;;;;;;;;;;;;5039896;28;19913;-75
2021/11/15 09:04:59;;;;;;;;;;;;;;;;;;5037986;28;20507;-76
2021/11/15 09:07:26;;;;;;;;;;;;;;;;;;5037861;28;19924;-77
2021/11/15 09:09:52;;;;;;;;;;;;;;;;;;5038278;28;19920;-76
2021/11/15 09:12:18;;;;;;;;;;;;;;;;;;5030624;28;20370;-75
2021/11/15 09:14:44;;;;;;;;;;;;;;;;;;5012940;28;20238;-77
2021/11/15 09:17:10;;;;;;;;;;;;;;;;;;5022041;28;19916;-76
2021/11/15 09:19:38;;;;;;;;;;;;;;;;;;5035064;28;20091;-78
2021/11/15 09:22:04;;;;;;;;;;;;;;;;;;5034887;28;19959;-78
2021/11/15 09:24:30;;;;;;;;;;;;;;;;;;5033670;28;19941;-79
2021/11/15 09:26:56;;;;;;;;;;;;;;;;;;5033552;28;20346;-78
2021/11/15 09:29:22;;;;;;;;;;;;;;;;;;5029255;28;19926;-74
2021/11/15 09:31:48;;;;;;;;;;;;;;;;;;5032050;28;19931;-79
2021/11/15 09:34:14;;;;;;;;;;;;;;;;;;5024408;28;20362;-80
2021/11/15 09:36:39;;;;;;;;;;;;;;;;;;5012288;28;19917;-80
2021/11/15 09:39:05;;;;;;;;;;;;;;;;;;5034517;28;19917;-78
2021/11/15 09:41:31;;;;;;;;;;;;;;;;;;5035299;28;20445;-79
2021/11/15 09:44:15;;;;;;;;;;;;;;;;;;5032945;28;19917;-76
2021/11/15 09:46:41;;;;;;;;;;;;;;;;;;5036189;28;19913;-78
2021/11/15 09:49:12;;;;;;;;;;;;;;;;;;5048625;28;20396;-75
2021/11/15 09:51:37;;;;;;;;;;;;;;;;;;5023071;28;19913;-79
2021/11/15 09:54:03;;;;;;;;;;;;;;;;;;5031731;28;20309;-78
2021/11/15 09:56:29;;;;;;;;;;;;;;;;;;5032950;28;19912;-80
2021/11/15 09:58:55;;;;;;;;;;;;;;;;;;5030366;28;19939;-79
2021/11/15 10:01:23;;;;;;;;;;;;;;;;;;5043914;28;19909;-79
2021/11/15 10:03:49;;;;;;;;;;;;;;;;;;5036200;28;20424;-78
2021/11/15 10:06:14;;;;;;;;;;;;;;;;;;5036404;28;19948;-80
2021/11/15 10:08:40;;;;;;;;;;;;;;;;;;5022880;28;20273;-75
2021/11/15 10:11:06;;;;;;;;;;;;;;;;;;5039900;28;19921;-78
2021/11/15 10:13:33;;;;;;;;;;;;;;;;;;5035235;28;19920;-79
2021/11/15 10:15:59;;;;;;;;;;;;;;;;;;5023239;28;19920;-77
2021/11/15 10:18:26;;;;;;;;;;;;;;;;;;5034330;28;19910;-79
2021/11/15 10:20:52;;;;;;;;;;;;;;;;;;5038147;28;19913;-79
2021/11/15 10:23:17;;;;;;;;;;;;;;;;;;5045018;28;19909;-77
2021/11/15 10:25:43;;;;;;;;;;;;;;;;;;5036104;28;19909;-75
2021/11/15 10:28:09;;;;;;;;;;;;;;;;;;5036232;28;19916;-78
2021/11/15 10:30:36;;;;;;;;;;;;;;;;;;5044589;28;19967;-78
2021/11/15 10:33:07;;;;;;;;;;;;;;;;;;5023032;28;20212;-78
2021/11/15 10:35:33;;;;;;;;;;;;;;;;;;5041785;28;20277;-79
2021/11/15 10:37:58;;;;;;;;;;;;;;;;;;5040961;28;19913;-78
2021/11/15 10:40:27;;;;;;;;;;;;;;;;;;5031968;28;20390;-79
2021/11/15 10:42:53;;;;;;;;;;;;;;;;;;5025051;28;19909;-79
2021/11/15 10:45:19;;;;;;;;;;;;;;;;;;5035447;28;19909;-77
2021/11/15 10:47:45;;;;;;;;;;;;;;;;;;5039011;28;19908;-79
2021/11/15 10:50:11;;;;;;;;;;;;;;;;;;5039928;28;19924;-81
2021/11/15 10:52:40;;;;;;;;;;;;;;;;;;5028994;28;19913;-78
2021/11/15 10:55:07;;;;;;;;;;;;;;;;;;5022366;28;19916;-78
2021/11/15 10:57:33;;;;;;;;;;;;;;;;;;5037778;28;20012;-79
2021/11/15 11:00:02;;;;;;;;;;;;;;;;;;5036600;28;19913;-78
2021/11/15 11:02:28;;;;;;;;;;;;;;;;;;5013279;28;20151;-80
2021/11/15 11:04:54;;;;;;;;;;;;;;;;;;5010973;28;20033;-80
2021/11/15 11:07:20;;;;;;;;;;;;;;;;;;4996118;28;19909;-80
2021/11/15 11:09:47;;;;;;;;;;;;;;;;;;4993772;28;19921;-78
2021/11/15 11:12:14;;;;;;;;;;;;;;;;;;4993417;28;19909;-78
2021/11/15 11:14:41;;;;;;;;;;;;;;;;;;5009505;28;19921;-80
2021/11/15 11:17:08;;;;;;;;;;;;;;;;;;4995954;28;19992;-77
2021/11/15 11:19:43;;;;;;;;;;;;;;;;;;5008394;28;20031;-78
2021/11/15 11:24:58;;;;;;;;;;;;;;;;;;5008847;28;19917;-77
2021/11/15 11:27:24;;;;;;;;;;;;;;;;;;4992108;28;19917;-77
2021/11/15 11:29:50;;;;;;;;;;;;;;;;;;4995356;28;19929;-76
2021/11/15 11:32:16;;;;;;;;;;;;;;;;;;4995467;28;20157;-77
2021/11/15 11:34:42;;;;;;;;;;;;;;;;;;5025493;28;19917;-77
2021/11/15 11:37:08;;;;;;;;;;;;;;;;;;5037109;28;19909;-77
2021/11/15 11:39:35;;;;;;;;;;;;;;;;;;5038006;28;19909;-78
2021/11/15 11:42:01;;;;;;;;;;;;;;;;;;5036799;28;19913;-77
2021/11/15 11:44:27;;;;;;;;;;;;;;;;;;5026743;28;19975;-78
2021/11/15 11:46:53;;;;;;;;;;;;;;;;;;5034848;28;19952;-79
2021/11/15 11:49:19;;;;;;;;;;;;;;;;;;5046821;28;19924;-79
2021/11/15 11:51:45;;;;;;;;;;;;;;;;;;5043573;28;19919;-79
2021/11/15 11:54:11;;;;;;;;;;;;;;;;;;5031590;28;19916;-79
2021/11/15 11:56:40;;;;;;;;;;;;;;;;;;5038485;28;19913;-77
2021/11/15 11:59:06;;;;;;;;;;;;;;;;;;5034499;28;20007;-78
2021/11/15 12:01:31;;;;;;;;;;;;;;;;;;5024440;28;20431;-77
2021/11/15 12:03:57;;;;;;;;;;;;;;;;;;5031625;28;19916;-79
2021/11/15 12:06:23;;;;;;;;;;;;;;;;;;5034656;28;19913;-77
2021/11/15 12:08:55;;;;;;;;;;;;;;;;;;5038002;28;19970;-77
2021/11/15 12:11:20;;;;;;;;;;;;;;;;;;5048171;28;19917;-79
2021/11/15 12:13:46;;;;;;;;;;;;;;;;;;5036763;28;20011;-80
2021/11/15 12:16:15;;;;;;;;;;;;;;;;;;5041462;28;19931;-79
2021/11/15 12:18:41;;;;;;;;;;;;;;;;;;5038133;28;19916;-77
2021/11/15 12:21:08;;;;;;;;;;;;;;;;;;5040730;28;19917;-79
2021/11/15 12:23:34;;;;;;;;;;;;;;;;;;5036516;28;19971;-78
2021/11/15 12:26:00;;;;;;;;;;;;;;;;;;5042205;28;19913;-80
2021/11/15 12:28:28;;;;;;;;;;;;;;;;;;5041559;28;19920;-80
2021/11/15 12:30:54;;;;;;;;;;;;;;;;;;5036443;28;19948;-79
2021/11/15 12:33:19;;;;;;;;;;;;;;;;;;5015730;28;19952;-78
2021/11/15 12:35:45;;;;;;;;;;;;;;;;;;5030781;28;19920;-79
2021/11/15 12:38:11;;;;;;;;;;;;;;;;;;5033862;28;19959;-79
2021/11/15 12:40:40;;;;;;;;;;;;;;;;;;5034330;28;20003;-80
2021/11/15 12:43:06;;;;;;;;;;;;;;;;;;5043088;28;19936;-78
2021/11/15 12:45:31;;;;;;;;;;;;;;;;;;5049331;28;19936;-77
2021/11/15 12:47:57;;;;;;;;;;;;;;;;;;5044360;28;20007;-78
2021/11/15 12:50:27;;;;;;;;;;;;;;;;;;5033467;28;19913;-78
2021/11/15 12:52:53;;;;;;;;;;;;;;;;;;5033179;28;20280;-80
2021/11/15 12:55:19;;;;;;;;;;;;;;;;;;5044749;28;19912;-79
2021/11/15 12:57:45;;;;;;;;;;;;;;;;;;5043942;28;20273;-81
2021/11/15 13:00:11;;;;;;;;;;;;;;;;;;5015759;28;19910;-79
2021/11/15 13:02:37;;;;;;;;;;;;;;;;;;5013803;28;20297;-79
2021/11/15 13:05:03;;;;;;;;;;;;;;;;;;5022603;28;19963;-80
2021/11/15 13:07:29;;;;;;;;;;;;;;;;;;5048600;28;20213;-79
2021/11/15 13:09:55;;;;;;;;;;;;;;;;;;5032320;28;20420;-79
2021/11/15 13:12:21;;;;;;;;;;;;;;;;;;5030188;28;19909;-78
2021/11/15 13:14:51;;;;;;;;;;;;;;;;;;5023991;28;20400;-79
2021/11/15 13:17:18;;;;;;;;;;;;;;;;;;5029581;28;19914;-79
2021/11/15 13:19:43;;;;;;;;;;;;;;;;;;5044051;28;19913;-79
2021/11/15 13:22:09;;;;;;;;;;;;;;;;;;5029473;28;19914;-79
2021/11/15 13:24:35;;;;;;;;;;;;;;;;;;5030630;28;19916;-80
2021/11/15 13:27:01;;;;;;;;;;;;;;;;;;5048516;28;19917;-79
2021/11/15 13:29:27;;;;;;;;;;;;;;;;;;5038580;28;19921;-78
2021/11/15 13:31:56;;;;;;;;;;;;;;;;;;5051239;28;19920;-79
2021/11/15 13:34:22;;;;;;;;;;;;;;;;;;5051989;28;19948;-78
2021/11/15 13:36:48;;;;;;;;;;;;;;;;;;5040101;28;19921;-78
2021/11/15 13:39:14;;;;;;;;;;;;;;;;;;5026864;28;19915;-80
2021/11/15 13:41:40;;;;;;;;;;;;;;;;;;5023324;28;20000;-79
2021/11/15 13:44:06;;;;;;;;;;;;;;;;;;5037091;28;19916;-80
2021/11/15 13:46:32;;;;;;;;;;;;;;;;;;5031924;28;19915;-78
2021/11/15 13:48:58;;;;;;;;;;;;;;;;;;5024751;28;20008;-79
2021/11/15 13:51:24;;;;;;;;;;;;;;;;;;5013944;28;19919;-78
2021/11/15 13:53:50;;;;;;;;;;;;;;;;;;5013422;28;20004;-79
2021/11/15 13:56:16;;;;;;;;;;;;;;;;;;5015922;28;19917;-79
2021/11/15 13:58:42;;;;;;;;;;;;;;;;;;5014921;28;19913;-80
2021/11/15 14:01:08;;;;;;;;;;;;;;;;;;5012612;28;20384;-80
2021/11/15 14:03:35;;;;;;;;;;;;;;;;;;5022294;28;19914;-82
2021/11/15 14:06:01;;;;;;;;;;;;;;;;;;5017115;28;19917;-79
2021/11/15 14:08:27;;;;;;;;;;;;;;;;;;5029604;28;20415;-78
2021/11/15 14:10:56;;;;;;;;;;;;;;;;;;5015699;28;20350;-78
2021/11/15 14:13:21;;;;;;;;;;;;;;;;;;5014882;28;20003;-79
2021/11/15 14:15:47;;;;;;;;;;;;;;;;;;5015603;28;20003;-78
2021/11/15 14:18:13;;;;;;;;;;;;;;;;;;5022794;28;19909;-78
2021/11/15 14:20:39;;;;;;;;;;;;;;;;;;5022973;28;19917;-78
2021/11/15 14:23:05;;;;;;;;;;;;;;;;;;5012108;28;19910;-79
2021/11/15 14:25:31;;;;;;;;;;;;;;;;;;5021841;28;20337;-78
2021/11/15 14:27:57;;;;;;;;;;;;;;;;;;5012753;28;19921;-80
2021/11/15 14:30:23;;;;;;;;;;;;;;;;;;5012308;28;19921;-79
2021/11/15 14:32:49;;;;;;;;;;;;;;;;;;5012474;28;19913;-78
2021/11/15 14:35:15;;;;;;;;;;;;;;;;;;5019593;28;19917;-77
2021/11/15 14:37:40;;;;;;;;;;;;;;;;;;5020118;28;20376;-78
2021/11/15 14:40:06;;;;;;;;;;;;;;;;;;5011180;28;19917;-77
2021/11/15 14:42:32;;;;;;;;;;;;;;;;;;5020949;28;19936;-79
2021/11/15 14:44:58;;;;;;;;;;;;;;;;;;5012228;28;20349;-78
2021/11/15 14:47:24;;;;;;;;;;;;;;;;;;5013325;28;19913;-79
2021/11/15 14:49:50;;;;;;;;;;;;;;;;;;5036376;28;19909;-77
2021/11/15 14:52:16;;;;;;;;;;;;;;;;;;5020851;28;20384;-79
2021/11/15 14:54:42;;;;;;;;;;;;;;;;;;5025875;28;20401;-80
2021/11/15 14:57:08;;;;;;;;;;;;;;;;;;5015928;28;20266;-81
2021/11/15 14:59:34;;;;;;;;;;;;;;;;;;5026976;28;19957;-79
2021/11/15 15:02:01;;;;;;;;;;;;;;;;;;5026673;28;20417;-78
2021/11/15 15:04:27;;;;;;;;;;;;;;;;;;5015345;28;19924;-79
2021/11/15 15:06:52;;;;;;;;;;;;;;;;;;5017494;28;20274;-80
2021/11/15 15:09:18;;;;;;;;;;;;;;;;;;5017275;28;19921;-79
2021/11/15 15:11:45;;;;;;;;;;;;;;;;;;5028027;28;20436;-80
2021/11/15 15:14:11;;;;;;;;;;;;;;;;;;5033516;28;19916;-80
2021/11/15 15:16:38;;;;;;;;;;;;;;;;;;5029046;28;19987;-78
2021/11/15 15:19:10;;;;;;;;;;;;;;;;;;5027080;28;19921;-80
2021/11/15 15:21:36;;;;;;;;;;;;;;;;;;5018759;28;19925;-79
2021/11/15 15:24:03;;;;;;;;;;;;;;;;;;5023935;28;19916;-79
2021/11/15 15:26:29;;;;;;;;;;;;;;;;;;5026264;28;19909;-79
2021/11/15 15:28:55;;;;;;;;;;;;;;;;;;5032436;28;19946;-80
2021/11/15 15:31:21;;;;;;;;;;;;;;;;;;5029939;28;20425;-79
2021/11/15 15:33:48;;;;;;;;;;;;;;;;;;5011724;28;19956;-78
2021/11/15 15:36:14;;;;;;;;;;;;;;;;;;5031083;28;20411;-78
2021/11/15 15:38:40;;;;;;;;;;;;;;;;;;5025853;28;20370;-78
2021/11/15 15:41:06;;;;;;;;;;;;;;;;;;5027331;28;19918;-78
2021/11/15 15:43:32;;;;;;;;;;;;;;;;;;5032877;28;20075;-80
2021/11/15 15:45:59;;;;;;;;;;;;;;;;;;5021768;28;19923;-78
2021/11/15 15:48:25;;;;;;;;;;;;;;;;;;5034105;28;20338;-80
2021/11/15 15:50:52;;;;;;;;;;;;;;;;;;5028147;28;19917;-79
2021/11/15 15:53:18;;;;;;;;;;;;;;;;;;5023665;28;19914;-79
2021/11/15 15:55:44;;;;;;;;;;;;;;;;;;5026632;28;20324;-78
2021/11/15 15:58:10;;;;;;;;;;;;;;;;;;5029102;28;20340;-78
2021/11/15 16:00:36;;;;;;;;;;;;;;;;;;5031921;28;20076;-78
2021/11/15 16:03:02;;;;;;;;;;;;;;;;;;5023991;28;20296;-79
2021/11/15 16:11:47;;;;;;;;;;;;;;;;;;5012468;28;20278;-80
2021/11/15 16:13:55;;;;;;;;;;;;;;;;;;5001865;28;19918;-80
2021/11/15 16:17:08;;;;;;;;;;;;;;;;;;5023834;28;20035;-79
2021/11/15 16:19:11;;;;;;;;;;;;;;;;;;5008111;28;19917;-82
2021/11/15 16:21:38;;;;;;;;;;;;;;;;;;5015546;28;20270;-78
2021/11/15 16:24:05;;;;;;;;;;;;;;;;;;5027378;28;19917;-80
2021/11/15 16:26:30;;;;;;;;;;;;;;;;;;5014599;28;19971;-77
2021/11/15 16:28:56;;;;;;;;;;;;;;;;;;5009898;28;19925;-79
2021/11/15 16:31:22;;;;;;;;;;;;;;;;;;5027941;28;20578;-82
2021/11/15 16:33:49;;;;;;;;;;;;;;;;;;5013447;28;19909;-79
2021/11/15 16:36:15;;;;;;;;;;;;;;;;;;5019249;28;19920;-78
2021/11/15 16:38:41;;;;;;;;;;;;;;;;;;5015189;28;20401;-77
2021/11/15 16:41:07;;;;;;;;;;;;;;;;;;5025242;28;19913;-79
2021/11/15 16:43:32;;;;;;;;;;;;;;;;;;5027401;28;20270;-80
2021/11/15 16:45:58;;;;;;;;;;;;;;;;;;5009661;28;19917;-81
2021/11/15 16:48:24;;;;;;;;;;;;;;;;;;5018857;28;19913;-82